Time;durP1;ratioP1;P1;durP2;ratioP2;P2;SDS_P1;SDS_P2;PMS_P1;PMS_P2;Temp;Humidity;BMP_temperature;BMP_pressure;BME280_temperature;BME280_humidity;BME280_pressure;Samples;Min_cycle;Max_cycle;Signal;HPM_P1;HPM_P2
2021/07/21 00:00:16;;;;;;;32.67;16.23;;;17.10;99.90;;;;;;5095025;28;20225;-78
2021/07/21 00:02:43;;;;;;;32.53;16.17;;;17.00;99.90;;;;;;5094638;28;20282;-79
2021/07/21 00:05:12;;;;;;;29.40;16.23;;;16.90;99.90;;;;;;5094660;28;20289;-78
2021/07/21 00:07:39;;;;;;;32.67;15.93;;;16.80;99.90;;;;;;5095041;28;20290;-78
2021/07/21 00:10:08;;;;;;;27.77;15.97;;;16.80;99.90;;;;;;5094891;28;20191;-78
2021/07/21 00:15:22;;;;;;;33.23;16.80;;;16.80;99.90;;;;;;5094190;28;20202;-78
2021/07/21 00:17:58;;;;;;;29.40;15.67;;;16.80;99.90;;;;;;5094295;28;20223;-78
2021/07/21 00:20:25;;;;;;;28.53;14.90;;;16.80;99.90;;;;;;5094807;28;20230;-78
2021/07/21 00:22:52;;;;;;;28.50;14.80;;;16.80;99.90;;;;;;5094727;28;20639;-78
2021/07/21 00:25:19;;;;;;;29.33;14.87;;;16.80;99.90;;;;;;5094823;28;20217;-78
2021/07/21 00:27:48;;;;;;;28.67;14.83;;;16.90;99.90;;;;;;5094311;28;20238;-78
2021/07/21 00:30:18;;;;;;;26.33;14.43;;;16.80;99.90;;;;;;5094327;28;20278;-78
2021/07/21 00:32:46;;;;;;;29.10;15.90;;;16.80;99.90;;;;;;5094713;28;20195;-78
2021/07/21 00:35:15;;;;;;;26.90;15.67;;;16.80;99.90;;;;;;5094402;28;20286;-78
2021/07/21 00:37:42;;;;;;;26.03;15.13;;;16.80;99.90;;;;;;5094317;28;20274;-78
2021/07/21 00:40:11;;;;;;;27.40;15.33;;;16.90;99.90;;;;;;5093966;28;20338;-78
2021/07/21 00:42:39;;;;;;;26.60;14.87;;;16.90;99.90;;;;;;5093942;28;20282;-78
2021/07/21 00:45:08;;;;;;;29.53;14.93;;;16.80;99.90;;;;;;5094122;28;20285;-78
2021/07/21 00:47:35;;;;;;;28.03;14.43;;;16.70;99.90;;;;;;5094098;28;20234;-78
2021/07/21 00:50:02;;;;;;;30.30;15.07;;;16.70;99.90;;;;;;5094467;28;20286;-78
2021/07/21 00:52:29;;;;;;;29.03;14.30;;;16.60;99.90;;;;;;5094232;28;20230;-78
2021/07/21 00:54:56;;;;;;;28.80;14.87;;;16.60;99.90;;;;;;5094087;28;20191;-78
2021/07/21 00:57:24;;;;;;;30.27;14.90;;;16.50;99.90;;;;;;5093439;28;20237;-79
2021/07/21 00:59:53;;;;;;;32.70;14.93;;;16.40;99.90;;;;;;5093816;28;20294;-79
2021/07/21 01:02:21;;;;;;;31.53;16.67;;;16.40;99.90;;;;;;5093963;28;20214;-78
2021/07/21 01:04:49;;;;;;;28.33;15.70;;;16.50;99.90;;;;;;5093709;28;20203;-78
2021/07/21 01:07:15;;;;;;;31.73;16.27;;;16.50;99.90;;;;;;5093619;28;20294;-79
2021/07/21 01:09:45;;;;;;;26.10;14.63;;;16.50;99.90;;;;;;5093791;28;20224;-79
2021/07/21 01:12:19;;;;;;;29.77;15.37;;;16.50;99.90;;;;;;5093744;28;20199;-79
2021/07/21 01:14:56;;;;;;;31.73;16.27;;;16.40;99.90;;;;;;5093387;28;20227;-78
2021/07/21 01:17:30;;;;;;;27.93;15.10;;;16.50;99.90;;;;;;5093759;28;20226;-78
2021/07/21 01:20:17;;;;;;;32.10;15.93;;;16.40;99.90;;;;;;5093838;28;20639;-78
2021/07/21 01:22:47;;;;;;;27.70;15.03;;;16.20;99.90;;;;;;5093548;28;20286;-79
2021/07/21 01:25:17;;;;;;;33.53;15.70;;;16.30;99.90;;;;;;5093112;28;20205;-78
2021/07/21 01:27:48;;;;;;;30.33;16.00;;;16.30;99.90;;;;;;5093233;28;20690;-78
2021/07/21 01:30:17;;;;;;;30.40;16.03;;;16.20;99.90;;;;;;5093796;28;20298;-77
2021/07/21 01:32:47;;;;;;;26.73;14.73;;;16.20;99.90;;;;;;5093171;28;20238;-79
2021/07/21 01:35:20;;;;;;;26.10;15.17;;;16.10;99.90;;;;;;5093413;28;20237;-79
2021/07/21 01:37:53;;;;;;;34.17;16.37;;;16.10;99.90;;;;;;5093335;28;20197;-78
2021/07/21 01:40:25;;;;;;;30.27;16.20;;;16.10;99.90;;;;;;5093033;28;20770;-78
2021/07/21 01:42:57;;;;;;;30.77;15.60;;;16.10;99.90;;;;;;5093341;28;20294;-78
2021/07/21 01:45:25;;;;;;;29.67;15.97;;;16.00;99.90;;;;;;5093299;28;20206;-78
2021/07/21 01:47:53;;;;;;;38.27;15.93;;;16.10;99.90;;;;;;5093395;28;20201;-78
2021/07/21 01:50:21;;;;;;;28.80;16.00;;;16.30;99.90;;;;;;5092930;28;20194;-78
2021/07/21 01:52:51;;;;;;;36.23;16.73;;;16.30;99.90;;;;;;5093097;28;20746;-79
2021/07/21 01:55:20;;;;;;;30.10;15.40;;;16.30;99.90;;;;;;5092919;28;20202;-79
2021/07/21 01:57:50;;;;;;;36.17;16.63;;;16.30;99.90;;;;;;5093279;28;20195;-79
2021/07/21 02:00:19;;;;;;;31.73;15.50;;;16.20;99.90;;;;;;5093101;28;20283;-78
2021/07/21 02:02:51;;;;;;;32.63;16.07;;;16.20;99.90;;;;;;5092864;28;20289;-79
2021/07/21 02:05:19;;;;;;;31.77;15.87;;;16.20;99.90;;;;;;5092958;28;20244;-78
2021/07/21 02:07:47;;;;;;;37.87;16.63;;;16.10;99.90;;;;;;5092784;28;20727;-78
2021/07/21 02:10:18;;;;;;;37.40;16.63;;;16.10;99.90;;;;;;5092736;28;20301;-79
2021/07/21 02:12:46;;;;;;;31.70;16.97;;;16.10;99.90;;;;;;5092982;28;20207;-78
2021/07/21 02:15:13;;;;;;;32.97;16.27;;;16.00;99.90;;;;;;5092820;28;20289;-78
2021/07/21 02:17:43;;;;;;;32.87;16.23;;;15.90;99.90;;;;;;5092838;28;20649;-78
2021/07/21 02:20:12;;;;;;;39.00;17.43;;;15.90;99.90;;;;;;5092616;28;20214;-79
2021/07/21 02:22:41;;;;;;;33.27;17.33;;;15.90;99.90;;;;;;5092472;28;20226;-78
2021/07/21 02:25:10;;;;;;;32.90;17.50;;;15.90;99.90;;;;;;5093149;28;20217;-78
2021/07/21 02:27:37;;;;;;;31.97;16.73;;;15.90;99.90;;;;;;5096205;28;20293;-78
2021/07/21 02:30:07;;;;;;;39.83;18.03;;;16.00;99.90;;;;;;5096970;28;20199;-78
2021/07/21 02:32:37;;;;;;;37.23;17.13;;;15.90;99.90;;;;;;5096948;28;20191;-78
2021/07/21 02:35:07;;;;;;;35.20;16.73;;;15.90;99.90;;;;;;5096562;28;20282;-78
2021/07/21 02:37:34;;;;;;;41.17;17.40;;;15.80;99.90;;;;;;5096593;28;20287;-79
2021/07/21 02:40:01;;;;;;;32.90;16.87;;;15.90;99.90;;;;;;5096408;28;20405;-78
2021/07/21 02:42:28;;;;;;;31.53;16.23;;;15.90;99.90;;;;;;5096428;28;20556;-79
2021/07/21 02:44:55;;;;;;;39.87;16.80;;;15.90;99.90;;;;;;5096657;28;20205;-79
2021/07/21 02:47:24;;;;;;;31.33;16.47;;;15.90;99.90;;;;;;5096309;28;20244;-79
2021/07/21 02:49:51;;;;;;;36.33;18.40;;;15.80;99.90;;;;;;5096089;28;20190;-79
2021/07/21 02:52:24;;;;;;;36.77;17.67;;;15.80;99.90;;;;;;5096566;28;20195;-78
2021/07/21 02:55:00;;;;;;;37.40;18.13;;;15.80;99.90;;;;;;5096366;28;20236;-78
2021/07/21 02:57:35;;;;;;;38.50;17.53;;;15.70;99.90;;;;;;5096475;28;20225;-78
2021/07/21 03:00:09;;;;;;;37.53;17.90;;;15.60;99.90;;;;;;5096272;28;20250;-79
2021/07/21 03:02:38;;;;;;;41.07;18.20;;;15.60;99.90;;;;;;5096453;28;20233;-79
2021/07/21 03:05:08;;;;;;;37.10;18.10;;;15.60;99.90;;;;;;5096073;28;20238;-78
2021/07/21 03:07:39;;;;;;;42.93;18.70;;;15.50;99.90;;;;;;5095903;28;20282;-77
2021/07/21 03:10:10;;;;;;;42.97;18.77;;;15.60;99.90;;;;;;5096077;28;20308;-79
2021/07/21 03:12:39;;;;;;;39.87;18.63;;;15.50;99.90;;;;;;5095782;28;20731;-78
2021/07/21 03:15:07;;;;;;;40.37;17.93;;;15.30;99.90;;;;;;5095806;28;20656;-78
2021/07/21 03:17:36;;;;;;;44.80;20.33;;;15.30;99.90;;;;;;5095808;28;20195;-78
2021/07/21 03:20:05;;;;;;;42.37;19.90;;;15.30;99.90;;;;;;5095092;28;20725;-78
2021/07/21 03:22:34;;;;;;;42.00;19.87;;;15.50;99.90;;;;;;5095606;28;20225;-78
2021/07/21 03:25:03;;;;;;;50.03;21.20;;;15.30;99.90;;;;;;5095340;28;20752;-78
2021/07/21 03:27:32;;;;;;;41.77;20.53;;;15.40;99.90;;;;;;5095500;28;20293;-78
2021/07/21 03:30:00;;;;;;;44.50;19.90;;;15.50;99.90;;;;;;5095657;28;20587;-78
2021/07/21 03:32:28;;;;;;;43.20;20.07;;;15.40;99.90;;;;;;5095363;28;20203;-79
2021/07/21 03:34:56;;;;;;;44.17;20.73;;;15.40;99.90;;;;;;5095718;28;20230;-78
2021/07/21 03:37:25;;;;;;;48.63;20.53;;;15.50;99.90;;;;;;5094583;28;20731;-78
2021/07/21 03:39:55;;;;;;;44.57;19.13;;;15.50;99.90;;;;;;5095297;28;20223;-78
2021/07/21 03:42:25;;;;;;;46.73;20.87;;;15.30;99.90;;;;;;5095578;28;20222;-78
2021/07/21 03:44:57;;;;;;;51.40;20.47;;;15.20;99.90;;;;;;5095254;28;20597;-77
2021/07/21 03:47:25;;;;;;;47.73;21.33;;;15.10;99.90;;;;;;5095389;28;20205;-78
2021/07/21 03:49:53;;;;;;;46.57;21.70;;;15.20;99.90;;;;;;5095192;28;20229;-78
2021/07/21 03:52:21;;;;;;;49.57;21.03;;;15.30;99.90;;;;;;5095021;28;20205;-79
2021/07/21 03:54:49;;;;;;;46.53;20.37;;;15.20;99.90;;;;;;5095428;28;20290;-78
2021/07/21 03:57:18;;;;;;;51.33;21.63;;;15.10;99.90;;;;;;5095154;28;20197;-78
2021/07/21 03:59:47;;;;;;;52.20;22.23;;;15.20;99.90;;;;;;5094813;28;20264;-79
2021/07/21 04:02:16;;;;;;;49.83;22.10;;;15.20;99.90;;;;;;5098178;28;20667;-79
2021/07/21 04:04:47;;;;;;;56.57;22.80;;;15.30;99.90;;;;;;5077003;28;20561;-78
2021/07/21 04:07:14;;;;;;;55.93;23.23;;;15.20;99.90;;;;;;5088479;28;20222;-79
2021/07/21 04:09:43;;;;;;;51.43;22.33;;;15.20;99.90;;;;;;5094974;28;20238;-78
2021/07/21 04:12:11;;;;;;;54.47;23.53;;;15.30;99.90;;;;;;5094974;28;20285;-78
2021/07/21 04:14:40;;;;;;;55.20;23.40;;;15.30;99.90;;;;;;5094795;28;20291;-78
2021/07/21 04:17:08;;;;;;;59.20;23.77;;;15.50;99.90;;;;;;5094521;28;20272;-79
2021/07/21 04:19:36;;;;;;;56.47;24.07;;;15.50;99.90;;;;;;5094724;28;20193;-78
2021/07/21 04:22:03;;;;;;;55.47;24.67;;;15.60;99.90;;;;;;5094638;28;20261;-78
2021/07/21 04:24:31;;;;;;;62.13;25.43;;;15.70;99.90;;;;;;5094583;28;20240;-78
2021/07/21 04:26:58;;;;;;;56.77;24.07;;;15.70;99.90;;;;;;5095796;28;20221;-78
2021/07/21 04:29:27;;;;;;;56.03;24.53;;;15.70;99.90;;;;;;5089937;28;20192;-79
2021/07/21 04:31:54;;;;;;;51.07;23.80;;;15.70;99.90;;;;;;5101976;28;20659;-78
2021/07/21 04:34:23;;;;;;;47.47;22.73;;;15.90;99.90;;;;;;5098653;28;20285;-79
2021/07/21 04:36:50;;;;;;;42.97;21.53;;;15.90;99.90;;;;;;5094318;28;20286;-79
2021/07/21 04:39:19;;;;;;;50.43;23.07;;;16.00;99.90;;;;;;5094585;28;20194;-79
2021/07/21 04:41:48;;;;;;;44.97;21.27;;;16.10;99.90;;;;;;5093991;28;20223;-78
2021/07/21 04:44:15;;;;;;;42.07;21.13;;;16.30;99.90;;;;;;5094085;28;20202;-78
2021/07/21 04:46:44;;;;;;;39.33;20.30;;;16.30;99.90;;;;;;5094341;28;20226;-79
2021/07/21 04:49:15;;;;;;;39.57;20.57;;;16.40;99.90;;;;;;5093156;28;20205;-78
2021/07/21 04:51:47;;;;;;;39.43;20.43;;;16.50;99.90;;;;;;5094533;28;20644;-80
2021/07/21 04:54:17;;;;;;;39.63;20.70;;;16.30;99.90;;;;;;5093986;28;20209;-78
2021/07/21 04:56:44;;;;;;;37.43;20.37;;;16.30;99.90;;;;;;5093926;28;20564;-78
2021/07/21 04:59:11;;;;;;;39.63;18.93;;;16.40;99.90;;;;;;5093112;28;20739;-78
2021/07/21 05:01:38;;;;;;;37.23;20.33;;;16.40;99.90;;;;;;5093572;28;20234;-78
2021/07/21 05:04:06;;;;;;;38.40;20.10;;;16.60;99.90;;;;;;5094106;28;20287;-78
2021/07/21 05:06:34;;;;;;;42.67;20.10;;;16.60;99.90;;;;;;5105687;28;20281;-80
2021/07/21 05:09:03;;;;;;;36.43;19.20;;;16.80;99.90;;;;;;5102208;28;20286;-79
2021/07/21 05:11:30;;;;;;;35.43;18.53;;;17.00;99.90;;;;;;5093421;28;20813;-79
2021/07/21 05:13:57;;;;;;;35.70;18.43;;;17.20;99.90;;;;;;5093703;28;20561;-79
2021/07/21 05:16:24;;;;;;;36.57;19.33;;;17.50;99.90;;;;;;5093837;28;20206;-79
2021/07/21 05:18:51;;;;;;;32.57;18.47;;;18.10;99.90;;;;;;5093770;28;20305;-80
2021/07/21 05:21:18;;;;;;;33.67;17.80;;;18.90;99.90;;;;;;5093569;28;20257;-80
2021/07/21 05:23:45;;;;;;;31.33;17.50;;;19.90;99.90;;;;;;5093496;28;20249;-79
2021/07/21 05:26:14;;;;;;;34.20;17.03;;;21.10;99.90;;;;;;5093293;28;20202;-79
2021/07/21 05:28:41;;;;;;;27.57;17.37;;;22.00;99.90;;;;;;5093356;28;20297;-79
2021/07/21 05:31:08;;;;;;;27.80;17.63;;;22.80;99.90;;;;;;5093643;28;20305;-79
2021/07/21 05:33:35;;;;;;;29.52;17.77;;;23.40;99.90;;;;;;5093498;28;20293;-79
2021/07/21 05:36:03;;;;;;;28.45;17.27;;;24.00;99.90;;;;;;5093297;28;20281;-79
2021/07/21 05:38:30;;;;;;;31.77;17.02;;;24.50;99.90;;;;;;5093108;28;20282;-80
2021/07/21 05:40:57;;;;;;;27.83;17.08;;;25.00;99.90;;;;;;5093412;28;20313;-79
2021/07/21 05:43:29;;;;;;;26.45;16.75;;;25.80;99.90;;;;;;5093365;28;20302;-79
2021/07/21 05:45:56;;;;;;;22.60;16.20;;;26.10;99.90;;;;;;5093289;28;20616;-79
2021/07/21 05:48:22;;;;;;;29.20;17.05;;;26.50;99.90;;;;;;5093155;28;20194;-79
2021/07/21 05:50:49;;;;;;;25.42;17.60;;;27.20;99.90;;;;;;5093624;28;20554;-79
2021/07/21 05:53:16;;;;;;;22.83;16.67;;;27.70;99.90;;;;;;5092886;28;20285;-79
2021/07/21 05:55:43;;;;;;;25.00;16.67;;;28.40;99.90;;;;;;5093109;28;20226;-79
2021/07/21 05:58:10;;;;;;;25.70;16.23;;;28.70;99.90;;;;;;5093138;28;20203;-79
2021/07/21 06:00:38;;;;;;;23.02;16.08;;;29.40;99.90;;;;;;5093270;28;20219;-79
2021/07/21 06:03:05;;;;;;;22.33;16.35;;;29.80;99.90;;;;;;5097319;28;20286;-80
2021/07/21 06:05:32;;;;;;;26.00;16.77;;;30.30;99.90;;;;;;5097136;28;20282;-79
2021/07/21 06:07:59;;;;;;;21.55;16.42;;;30.50;99.90;;;;;;5097185;28;20198;-79
2021/07/21 06:10:26;;;;;;;24.35;16.27;;;30.70;99.90;;;;;;5097328;28;20289;-79
2021/07/21 06:12:53;;;;;;;25.13;16.58;;;30.80;99.90;;;;;;5097083;28;20229;-79
2021/07/21 06:15:25;;;;;;;20.77;15.57;;;30.90;99.90;;;;;;5097161;28;20281;-79
2021/07/21 06:17:54;;;;;;;23.52;15.95;;;31.20;99.90;;;;;;5097516;28;20641;-79
2021/07/21 06:20:20;;;;;;;25.23;16.10;;;31.00;99.90;;;;;;5096663;28;20226;-79
2021/07/21 06:22:47;;;;;;;19.77;14.90;;;30.80;99.90;;;;;;5096910;28;20286;-79
2021/07/21 06:25:15;;;;;;;21.60;14.98;;;30.90;99.90;;;;;;5097138;28;20209;-79
2021/07/21 06:27:42;;;;;;;22.90;15.52;;;30.40;99.90;;;;;;5096795;28;20293;-79
2021/07/21 06:30:10;;;;;;;20.73;15.18;;;30.50;99.90;;;;;;5096796;28;20198;-79
2021/07/21 06:32:37;;;;;;;24.13;14.48;;;30.50;99.90;;;;;;5096824;28;20278;-79
2021/07/21 06:35:07;;;;;;;19.60;14.40;;;31.40;99.90;;;;;;5096360;28;20297;-79
2021/07/21 06:37:34;;;;;;;21.85;14.70;;;31.80;99.90;;;;;;5096884;28;20286;-79
2021/07/21 06:40:01;;;;;;;20.27;14.80;;;31.60;99.90;;;;;;5096708;28;20195;-79
2021/07/21 06:42:28;;;;;;;20.05;14.90;;;31.30;99.90;;;;;;5096536;28;20222;-79
2021/07/21 06:44:55;;;;;;;20.88;14.35;;;32.10;99.90;;;;;;5096646;28;20195;-79
2021/07/21 06:47:23;;;;;;;19.80;14.95;;;32.60;99.90;;;;;;5096719;28;20194;-79
2021/07/21 06:49:50;;;;;;;21.52;14.63;;;33.00;99.90;;;;;;5096649;28;20222;-79
2021/07/21 06:52:19;;;;;;;18.85;14.40;;;33.70;99.90;;;;;;5096562;28;20281;-79
2021/07/21 06:54:46;;;;;;;20.80;14.45;;;34.30;99.90;;;;;;5096596;28;20199;-80
2021/07/21 06:57:13;;;;;;;24.23;14.82;;;34.60;99.90;;;;;;5096226;28;20191;-79
2021/07/21 06:59:40;;;;;;;22.42;13.75;;;35.00;99.90;;;;;;5096186;28;20290;-79
2021/07/21 07:02:10;;;;;;;19.08;13.70;;;34.80;99.90;;;;;;5095751;28;20287;-79
2021/07/21 07:04:37;;;;;;;18.88;13.50;;;34.80;99.90;;;;;;5096493;28;20583;-79
2021/07/21 07:07:04;;;;;;;17.52;12.82;;;35.40;99.90;;;;;;5096158;28;20191;-79
2021/07/21 07:09:33;;;;;;;15.43;12.05;;;35.50;99.90;;;;;;5096043;28;20282;-79
2021/07/21 07:11:59;;;;;;;17.40;12.25;;;35.80;99.90;;;;;;5095736;28;20547;-79
2021/07/21 07:14:26;;;;;;;16.20;11.43;;;36.50;99.90;;;;;;5095183;28;20290;-79
2021/07/21 07:16:53;;;;;;;18.13;12.40;;;36.50;99.90;;;;;;5095704;28;20735;-79
2021/07/21 07:19:20;;;;;;;14.93;11.18;;;36.10;99.90;;;;;;5095949;28;20281;-79
2021/07/21 07:21:47;;;;;;;17.52;12.48;;;35.60;99.90;;;;;;5095797;28;20230;-79
2021/07/21 07:24:14;;;;;;;15.57;12.27;;;36.00;99.90;;;;;;5095859;28;20285;-79
2021/07/21 07:26:42;;;;;;;21.40;11.20;;;36.80;99.90;;;;;;5095797;28;20237;-78
2021/07/21 07:29:09;;;;;;;18.27;10.82;;;37.60;99.90;;;;;;5095204;28;20198;-79
2021/07/21 07:31:36;;;;;;;16.10;9.60;;;36.40;99.90;;;;;;5095694;28;20286;-79
2021/07/21 07:34:03;;;;;;;11.18;8.32;;;34.70;99.90;;;;;;5095845;28;20199;-78
2021/07/21 07:36:30;;;;;;;14.90;9.02;;;35.20;99.90;;;;;;5095503;28;20194;-79
2021/07/21 07:38:57;;;;;;;11.23;8.70;;;34.70;99.90;;;;;;5095325;28;20638;-78
2021/07/21 07:41:23;;;;;;;14.27;8.80;;;34.00;99.90;;;;;;5095452;28;20219;-78
2021/07/21 07:43:53;;;;;;;12.30;8.48;;;33.20;99.90;;;;;;5095061;28;20237;-78
2021/07/21 07:46:24;;;;;;;10.02;8.07;;;33.20;99.90;;;;;;5095418;28;20285;-79
2021/07/21 07:48:51;;;;;;;11.48;8.55;;;33.80;99.90;;;;;;5095314;28;20225;-79
2021/07/21 07:51:18;;;;;;;12.07;8.30;;;32.60;99.90;;;;;;5095302;28;20198;-78
2021/07/21 07:53:45;;;;;;;13.00;8.52;;;32.10;99.90;;;;;;5095079;28;20294;-78
2021/07/21 07:56:12;;;;;;;9.38;7.53;;;31.90;99.90;;;;;;5094927;28;20202;-78
2021/07/21 07:58:39;;;;;;;9.85;7.72;;;32.60;99.90;;;;;;5095089;28;20316;-79
2021/07/21 08:01:07;;;;;;;13.00;7.70;;;33.70;99.90;;;;;;5095153;28;20289;-78
2021/07/21 08:03:34;;;;;;;11.27;7.85;;;34.20;99.90;;;;;;5095038;28;20234;-79
2021/07/21 08:06:02;;;;;;;9.88;7.32;;;33.90;99.90;;;;;;5094958;28;20297;-79
2021/07/21 08:08:30;;;;;;;13.13;8.40;;;34.00;99.90;;;;;;5094773;28;20195;-78
2021/07/21 08:10:57;;;;;;;11.35;7.70;;;33.50;99.90;;;;;;5094605;28;20190;-78
2021/07/21 08:13:24;;;;;;;15.10;7.40;;;33.20;99.90;;;;;;5094666;28;20199;-78
2021/07/21 08:15:52;;;;;;;11.25;7.75;;;34.20;99.90;;;;;;5094849;28;20205;-79
2021/07/21 08:18:20;;;;;;;11.65;7.38;;;34.20;99.00;;;;;;5094635;28;20205;-78
2021/07/21 08:20:47;;;;;;;11.38;7.32;;;34.30;99.40;;;;;;5094542;28;20201;-79
2021/07/21 08:23:15;;;;;;;11.32;8.05;;;34.50;99.90;;;;;;5094420;28;20318;-78
2021/07/21 08:25:43;;;;;;;11.85;7.50;;;34.00;99.90;;;;;;5094008;28;20678;-78
2021/07/21 08:28:10;;;;;;;16.40;8.32;;;35.30;99.90;;;;;;5094524;28;20213;-78
2021/07/21 08:30:37;;;;;;;15.05;8.55;;;35.30;98.40;;;;;;5094526;28;20209;-78
2021/07/21 08:33:04;;;;;;;11.88;8.32;;;34.40;98.60;;;;;;5094498;28;20290;-78
2021/07/21 08:35:33;;;;;;;12.27;7.80;;;34.80;99.40;;;;;;5094348;28;20191;-79
2021/07/21 08:38:01;;;;;;;13.43;8.00;;;35.20;98.40;;;;;;5094216;28;20556;-78
2021/07/21 08:40:30;;;;;;;10.93;8.43;;;36.20;97.40;;;;;;5094436;28;20201;-78
2021/07/21 08:42:57;;;;;;;12.48;8.60;;;35.80;97.00;;;;;;5094179;28;20257;-78
2021/07/21 08:45:24;;;;;;;10.80;8.50;;;36.00;99.50;;;;;;5094358;28;20205;-78
2021/07/21 08:47:51;;;;;;;11.82;8.63;;;36.10;97.20;;;;;;5094185;28;20191;-79
2021/07/21 08:50:18;;;;;;;10.35;8.30;;;36.60;98.90;;;;;;5093982;28;20208;-79
2021/07/21 08:52:47;;;;;;;10.73;8.43;;;37.20;98.20;;;;;;5094006;28;20199;-78
2021/07/21 08:55:15;;;;;;;10.98;8.32;;;37.20;95.10;;;;;;5094072;28;20732;-79
2021/07/21 08:57:43;;;;;;;11.68;7.97;;;37.70;97.10;;;;;;5093936;28;20723;-78
2021/07/21 09:00:14;;;;;;;11.82;8.35;;;38.10;98.80;;;;;;5093836;28;20237;-78
2021/07/21 09:02:41;;;;;;;14.18;9.18;;;37.20;95.60;;;;;;5093782;28;20252;-78
2021/07/21 09:05:10;;;;;;;11.45;8.30;;;37.20;95.60;;;;;;5093650;28;20194;-79
2021/07/21 09:07:38;;;;;;;9.95;8.13;;;38.00;97.90;;;;;;5093657;28;20195;-79
2021/07/21 09:10:10;;;;;;;10.85;8.15;;;39.60;98.40;;;;;;5093705;28;20647;-78
2021/07/21 09:12:38;;;;;;;9.80;8.15;;;39.90;93.90;;;;;;5093780;28;20568;-79
2021/07/21 09:15:06;;;;;;;9.77;8.20;;;38.10;93.00;;;;;;5093609;28;20202;-78
2021/07/21 09:17:33;;;;;;;10.73;8.05;;;37.20;94.10;;;;;;5093540;28;20201;-78
2021/07/21 09:19:59;;;;;;;12.25;8.75;;;37.30;95.80;;;;;;5093418;28;20281;-78
2021/07/21 09:22:30;;;;;;;14.48;8.75;;;36.60;93.90;;;;;;5093393;28;20232;-78
2021/07/21 09:25:19;;;;;;;12.27;9.20;;;35.30;94.20;;;;;;5093631;28;20233;-78
2021/07/21 09:27:48;;;;;;;12.98;9.30;;;34.00;96.90;;;;;;5093267;28;20289;-78
2021/07/21 09:30:18;;;;;;;11.77;8.50;;;35.30;96.10;;;;;;5093669;28;20285;-79
2021/07/21 09:32:56;;;;;;;11.90;9.30;;;34.90;95.10;;;;;;5093257;28;20286;-78
2021/07/21 09:35:25;;;;;;;11.40;8.20;;;33.70;95.60;;;;;;5092684;28;20198;-78
2021/07/21 09:37:53;;;;;;;13.43;9.27;;;33.00;97.00;;;;;;5093226;28;20747;-78
2021/07/21 09:40:21;;;;;;;12.20;8.50;;;32.30;97.30;;;;;;5093046;28;20252;-78
2021/07/21 09:42:48;;;;;;;13.38;9.10;;;31.70;98.10;;;;;;5093341;28;20258;-78
2021/07/21 09:45:17;;;;;;;10.75;8.52;;;31.80;97.40;;;;;;5093230;28;20285;-78
2021/07/21 09:47:51;;;;;;;12.77;9.35;;;32.20;98.90;;;;;;5093001;28;20241;-78
2021/07/21 09:50:23;;;;;;;10.50;8.13;;;33.10;97.90;;;;;;5092877;28;20289;-78
2021/07/21 09:52:53;;;;;;;11.60;8.95;;;33.50;97.70;;;;;;5092971;28;20203;-79
2021/07/21 09:55:23;;;;;;;11.00;8.95;;;32.50;97.20;;;;;;5093990;28;20286;-78
2021/07/21 09:58:03;;;;;;;14.15;10.07;;;31.00;98.20;;;;;;5103052;28;20206;-78
2021/07/21 10:00:31;;;;;;;14.98;9.07;;;31.60;98.10;;;;;;5096884;28;20656;-77
2021/07/21 10:03:16;;;;;;;16.02;8.27;;;33.00;99.60;;;;;;5094482;28;20269;-78
2021/07/21 10:06:09;;;;;;;13.88;8.40;;;33.30;98.80;;;;;;5094982;28;20266;-77
2021/07/21 10:08:41;;;;;;;11.32;8.70;;;33.80;97.90;;;;;;5102791;28;20225;-76
2021/07/21 10:11:28;;;;;;;18.52;9.25;;;33.50;97.30;;;;;;5097201;28;20203;-77
2021/07/21 10:14:08;;;;;;;12.45;8.65;;;32.00;98.00;;;;;;5093992;28;20631;-78
2021/07/21 10:16:40;;;;;;;11.38;9.18;;;31.80;97.70;;;;;;5092949;28;20199;-78
2021/07/21 10:19:09;;;;;;;10.93;8.68;;;30.70;98.50;;;;;;5092946;28;20201;-77
2021/07/21 10:21:37;;;;;;;12.90;9.20;;;31.20;99.70;;;;;;5092727;28;20195;-78
2021/07/21 10:24:06;;;;;;;13.95;9.35;;;30.80;99.10;;;;;;5092672;28;20663;-78
2021/07/21 10:26:35;;;;;;;11.70;9.45;;;31.00;99.90;;;;;;5092936;28;20653;-78
2021/07/21 10:29:02;;;;;;;13.15;8.52;;;31.40;98.60;;;;;;5092487;28;20241;-78
2021/07/21 10:31:30;;;;;;;12.88;8.68;;;31.50;99.10;;;;;;5092630;28;20559;-78
2021/07/21 10:33:57;;;;;;;10.55;8.35;;;32.20;98.40;;;;;;5092663;28;20294;-78
2021/07/21 10:36:25;;;;;;;12.50;8.68;;;31.50;99.30;;;;;;5093096;28;20289;-78
2021/07/21 10:38:52;;;;;;;12.30;8.32;;;32.30;99.00;;;;;;5092546;28;20195;-78
2021/07/21 10:41:20;;;;;;;12.07;8.93;;;32.90;98.70;;;;;;5092580;28;20294;-77
2021/07/21 10:43:52;;;;;;;12.80;8.25;;;32.30;98.50;;;;;;5092705;28;20313;-78
2021/07/21 10:46:37;;;;;;;11.90;8.20;;;31.80;99.50;;;;;;5092554;28;20285;-78
2021/07/21 10:49:26;;;;;;;12.02;9.07;;;30.40;99.40;;;;;;5096322;28;20199;-78
2021/07/21 10:55:03;;;;;;;10.82;8.50;;;32.40;99.90;;;;;;5078877;28;20207;-79
2021/07/21 11:00:19;;;;;;;15.50;8.95;;;31.30;99.50;;;;;;5096117;28;20674;-78
2021/07/21 11:02:47;;;;;;;10.73;8.07;;;31.40;99.40;;;;;;5096063;28;20328;-78
2021/07/21 11:05:30;;;;;;;9.77;7.93;;;32.40;98.70;;;;;;5096256;28;20191;-78
2021/07/21 11:07:58;;;;;;;11.27;8.20;;;32.20;98.60;;;;;;5093463;28;20283;-78
2021/07/21 11:10:34;;;;;;;10.27;8.38;;;32.10;99.30;;;;;;5096104;28;20282;-78
2021/07/21 11:13:01;;;;;;;10.45;8.30;;;32.40;98.90;;;;;;5095759;28;20195;-78
2021/07/21 11:15:38;;;;;;;10.10;8.30;;;33.20;97.40;;;;;;5095973;28;20286;-79
2021/07/21 11:18:52;;;;;;;10.98;8.70;;;33.50;96.60;;;;;;5095826;28;20195;-78
2021/07/21 11:21:21;;;;;;;9.85;7.25;;;33.00;97.50;;;;;;5095869;28;20205;-79
2021/07/21 11:23:59;;;;;;;12.07;8.40;;;32.40;97.50;;;;;;5095701;28;20230;-78
2021/07/21 11:26:46;;;;;;;10.52;7.97;;;30.80;98.50;;;;;;5095521;28;20273;-78
2021/07/21 11:29:45;;;;;;;11.25;7.68;;;31.00;98.60;;;;;;5095299;28;20238;-79
2021/07/21 11:32:25;;;;;;;10.60;7.53;;;29.80;99.30;;;;;;5061477;28;20755;-79
2021/07/21 11:34:52;;;;;;;9.20;7.60;;;29.90;99.90;;;;;;5095496;28;20293;-79
2021/07/21 11:37:27;;;;;;;10.15;7.55;;;31.00;99.90;;;;;;5095787;28;20293;-79
2021/07/21 11:39:54;;;;;;;11.02;7.93;;;30.80;98.70;;;;;;5095544;28;20285;-79
2021/07/21 11:42:30;;;;;;;10.20;7.95;;;32.10;99.90;;;;;;5095253;28;20658;-78
2021/07/21 11:45:21;;;;;;;12.43;8.60;;;32.60;98.70;;;;;;5095456;28;20194;-79
2021/07/21 11:47:56;;;;;;;11.90;8.50;;;32.80;97.80;;;;;;5075238;28;20238;-79
2021/07/21 11:50:26;;;;;;;9.07;8.00;;;31.10;99.00;;;;;;5095145;28;20640;-79
2021/07/21 11:52:54;;;;;;;12.18;8.45;;;31.40;99.50;;;;;;5095080;28;20281;-78
2021/07/21 11:55:26;;;;;;;13.73;8.15;;;32.40;99.50;;;;;;5095034;28;20290;-79
2021/07/21 11:57:53;;;;;;;9.68;7.78;;;32.90;99.90;;;;;;5095103;28;20289;-78
2021/07/21 12:00:21;;;;;;;11.07;8.30;;;34.20;99.90;;;;;;5094368;28;20305;-79
2021/07/21 12:02:59;;;;;;;10.40;7.80;;;34.70;97.30;;;;;;5095076;28;20226;-79
2021/07/21 12:05:27;;;;;;;9.02;7.45;;;33.90;98.40;;;;;;5094941;28;20203;-79
2021/07/21 12:07:54;;;;;;;11.43;7.40;;;33.00;97.80;;;;;;5095064;28;20252;-79
2021/07/21 12:10:21;;;;;;;7.85;7.05;;;32.60;99.00;;;;;;5094912;28;20191;-78
2021/07/21 12:12:48;;;;;;;10.02;7.53;;;32.20;99.20;;;;;;5094580;28;20187;-78
2021/07/21 12:15:17;;;;;;;8.73;7.43;;;32.20;99.90;;;;;;5094882;28;20285;-78
2021/07/21 12:17:44;;;;;;;9.63;7.45;;;32.20;99.90;;;;;;5094545;28;20291;-78
2021/07/21 12:20:14;;;;;;;9.10;6.80;;;31.90;98.20;;;;;;5094617;28;20746;-78
2021/07/21 12:22:46;;;;;;;9.80;7.60;;;31.50;99.70;;;;;;5094344;28;20261;-79
2021/07/21 12:25:15;;;;;;;9.43;7.78;;;30.90;99.90;;;;;;5094467;28;20294;-78
2021/07/21 12:27:43;;;;;;;8.80;6.93;;;30.30;99.90;;;;;;5094275;28;20298;-78
2021/07/21 12:30:12;;;;;;;9.30;7.43;;;30.60;99.90;;;;;;5094483;28;20238;-79
2021/07/21 12:32:40;;;;;;;9.05;7.50;;;30.50;99.90;;;;;;5094673;28;20378;-78
2021/07/21 12:35:09;;;;;;;9.38;7.45;;;30.40;99.90;;;;;;5094495;28;20678;-78
2021/07/21 12:37:42;;;;;;;9.05;7.20;;;30.20;99.90;;;;;;5094180;28;20191;-78
2021/07/21 12:40:12;;;;;;;8.88;7.35;;;30.10;99.90;;;;;;5094472;28;20199;-78
2021/07/21 12:42:40;;;;;;;10.63;7.38;;;30.50;99.90;;;;;;5094115;28;20683;-79
2021/07/21 12:45:09;;;;;;;10.38;7.47;;;30.10;99.90;;;;;;5094070;28;20197;-79
2021/07/21 12:47:37;;;;;;;10.45;7.40;;;29.70;99.90;;;;;;5094226;28;20197;-78
2021/07/21 12:50:07;;;;;;;8.90;6.45;;;29.70;99.90;;;;;;5093827;28;20755;-78